Time;durP1;ratioP1;P1;durP2;ratioP2;P2;SDS_P1;SDS_P2;PMS_P1;PMS_P2;Temp;Humidity;BMP_temperature;BMP_pressure;BME280_temperature;BME280_humidity;BME280_pressure;Samples;Min_cycle;Max_cycle;Signal;HPM_P1;HPM_P2
2022/07/19 00:01:37;;;;;;;6.97;6.03;;;;;;;17.10;79.60;102021.34;5090173;28;20238;-72
2022/07/19 00:04:03;;;;;;;10.97;6.33;;;;;;;17.09;79.86;102025.66;5071285;28;20678;-72
2022/07/19 00:06:28;;;;;;;9.00;6.83;;;;;;;17.03;79.80;102023.00;5089354;28;20237;-72
2022/07/19 00:08:54;;;;;;;8.03;6.17;;;;;;;17.01;79.29;102029.00;5071720;28;20705;-71
2022/07/19 00:11:19;;;;;;;7.03;5.97;;;;;;;17.02;79.60;102028.16;5089799;28;20245;-72
2022/07/19 00:13:45;;;;;;;6.93;5.90;;;;;;;16.99;80.05;102041.06;5089960;28;20276;-72
2022/07/19 00:16:10;;;;;;;7.43;6.27;;;;;;;16.95;79.55;102031.53;5089244;28;20295;-72
2022/07/19 00:18:36;;;;;;;8.43;6.33;;;;;;;16.81;80.39;102031.31;5089352;28;20705;-71
2022/07/19 00:21:01;;;;;;;8.90;6.43;;;;;;;16.77;80.26;102026.97;5104949;28;20585;-72
2022/07/19 00:23:27;;;;;;;9.17;6.37;;;;;;;16.77;80.20;102026.97;5088443;28;20228;-71
2022/07/19 00:25:52;;;;;;;9.83;6.30;;;;;;;16.69;80.31;102038.94;5089958;28;20173;-72
2022/07/19 00:28:18;;;;;;;9.27;6.63;;;;;;;16.71;80.80;102038.97;5089184;28;20284;-72
2022/07/19 00:30:43;;;;;;;7.83;6.23;;;;;;;16.69;80.50;102043.25;5089198;28;20183;-71
2022/07/19 00:33:09;;;;;;;9.57;6.70;;;;;;;16.66;81.16;102043.19;5089225;28;20658;-72
2022/07/19 00:35:38;;;;;;;7.90;6.97;;;;;;;16.55;81.34;102047.34;5071451;28;20208;-71
2022/07/19 00:38:14;;;;;;;8.10;6.40;;;;;;;16.52;80.97;102047.28;5088995;28;20200;-71
2022/07/19 00:40:41;;;;;;;9.60;7.33;;;;;;;16.43;81.92;102049.75;5089794;28;20215;-72
2022/07/19 00:43:07;;;;;;;8.60;6.67;;;;;;;16.41;81.56;102043.69;5089384;28;20642;-72
2022/07/19 00:45:33;;;;;;;9.33;7.10;;;;;;;16.43;82.23;102036.81;5089238;28;20188;-72
2022/07/19 00:47:58;;;;;;;9.23;6.97;;;;;;;16.38;82.67;102047.06;5088547;28;20547;-71
2022/07/19 00:50:24;;;;;;;9.13;7.43;;;;;;;16.32;82.78;102044.41;5071480;28;20802;-72
2022/07/19 00:52:55;;;;;;;14.27;7.40;;;;;;;16.31;83.34;102045.22;5089143;28;20397;-71
2022/07/19 00:55:22;;;;;;;9.30;7.20;;;;;;;16.34;83.49;102041.84;5089534;28;20203;-72
2022/07/19 00:57:48;;;;;;;9.70;7.30;;;;;;;16.22;83.15;102052.88;5074535;28;20200;-72
2022/07/19 01:00:16;;;;;;;8.83;7.07;;;;;;;16.19;83.94;102055.38;5093818;28;20219;-72
2022/07/19 01:02:42;;;;;;;9.67;7.50;;;;;;;16.14;84.46;102054.44;5093604;28;20862;-74
2022/07/19 01:05:09;;;;;;;9.53;6.93;;;;;;;16.10;83.74;102050.06;5093549;28;20181;-72
2022/07/19 01:07:37;;;;;;;9.40;7.43;;;;;;;16.12;83.46;102050.94;5092925;28;20207;-71
2022/07/19 01:10:08;;;;;;;10.47;7.83;;;;;;;16.08;83.51;102056.06;5093474;28;20207;-72
2022/07/19 01:12:34;;;;;;;11.83;8.17;;;;;;;16.05;83.76;102051.72;5093812;28;20183;-72
2022/07/19 01:15:00;;;;;;;8.60;7.20;;;;;;;16.00;83.17;102045.59;5093479;28;20287;-72
2022/07/19 01:17:26;;;;;;;11.13;7.83;;;;;;;15.96;83.90;102051.56;5092732;28;20203;-72
2022/07/19 01:19:53;;;;;;;9.10;7.47;;;;;;;15.93;83.50;102043.75;5092845;28;20203;-72
2022/07/19 01:22:18;;;;;;;9.90;8.00;;;;;;;15.86;84.45;102047.09;5087869;28;20188;-71
2022/07/19 01:24:44;;;;;;;9.30;8.23;;;;;;;15.87;84.10;102042.75;5108850;28;20196;-72
2022/07/19 01:27:10;;;;;;;12.50;9.30;;;;;;;15.80;85.05;102043.53;5092529;28;20402;-72
2022/07/19 01:29:36;;;;;;;10.60;7.90;;;;;;;15.74;85.08;102049.44;5054718;28;20287;-72
2022/07/19 01:32:04;;;;;;;12.40;8.10;;;;;;;15.74;84.43;102049.44;5075720;28;20272;-72
2022/07/19 01:34:29;;;;;;;12.37;8.93;;;;;;;15.66;85.61;102061.34;5074439;28;20180;-70
2022/07/19 01:36:55;;;;;;;10.80;8.63;;;;;;;15.63;85.45;102053.56;5092330;28;20692;-71
2022/07/19 01:39:20;;;;;;;12.77;8.30;;;;;;;15.61;84.93;102056.94;5092622;28;20204;-72
2022/07/19 01:41:46;;;;;;;10.27;9.03;;;;;;;15.64;85.22;102052.69;5108358;28;20558;-71
2022/07/19 01:44:11;;;;;;;13.20;9.67;;;;;;;15.65;84.97;102057.03;5092552;28;20196;-71
2022/07/19 01:46:37;;;;;;;11.33;9.90;;;;;;;15.58;85.48;102050.03;5092256;28;20177;-72
2022/07/19 01:49:03;;;;;;;11.23;8.93;;;;;;;15.55;85.08;102055.13;5092259;28;20212;-71
2022/07/19 01:51:28;;;;;;;11.33;8.53;;;;;;;15.55;84.76;102044.78;5092036;28;20186;-72
2022/07/19 01:53:53;;;;;;;12.97;8.80;;;;;;;15.54;84.74;102043.06;5092339;28;20184;-72
2022/07/19 01:56:19;;;;;;;8.87;7.70;;;;;;;15.50;84.27;102049.00;5092305;28;20315;-70
2022/07/19 01:58:44;;;;;;;11.43;7.83;;;;;;;15.51;84.35;102039.56;5073539;28;20212;-72
2022/07/19 02:01:10;;;;;;;11.83;7.70;;;;;;;15.49;84.74;102043.81;5092193;28;20192;-71
2022/07/19 02:03:35;;;;;;;8.67;7.47;;;;;;;15.45;85.77;102052.31;5092325;28;20266;-71
2022/07/19 02:06:01;;;;;;;10.90;7.30;;;;;;;15.39;85.69;102047.94;5091893;28;20263;-72
2022/07/19 02:08:27;;;;;;;9.80;7.67;;;;;;;15.37;85.96;102048.75;5091444;28;20211;-72
2022/07/19 02:10:52;;;;;;;8.20;6.83;;;;;;;15.29;86.00;102052.84;5092228;28;20261;-72
2022/07/19 02:13:18;;;;;;;8.87;7.30;;;;;;;15.23;86.19;102048.44;5092689;28;20670;-71
2022/07/19 02:15:43;;;;;;;10.80;7.20;;;;;;;15.15;87.22;102049.97;5074248;28;20863;-72
2022/07/19 02:18:09;;;;;;;10.43;6.90;;;;;;;15.19;86.77;102048.34;5092012;28;20191;-72
2022/07/19 02:20:34;;;;;;;8.00;7.13;;;;;;;15.15;86.09;102047.41;5073758;28;20185;-71
2022/07/19 02:23:00;;;;;;;10.13;7.57;;;;;;;15.14;85.78;102043.09;5073760;28;20325;-72
2022/07/19 02:25:25;;;;;;;10.80;7.33;;;;;;;15.17;86.10;102045.75;5091818;28;20204;-72
2022/07/19 02:27:53;;;;;;;10.27;7.30;;;;;;;15.13;86.36;102037.88;5073231;28;20262;-72
2022/07/19 02:30:19;;;;;;;8.93;6.87;;;;;;;15.07;86.89;102048.09;5091789;28;20208;-72
2022/07/19 02:32:44;;;;;;;8.97;7.70;;;;;;;14.99;87.63;102042.78;5091831;28;20557;-72
2022/07/19 02:35:11;;;;;;;11.20;8.00;;;;;;;14.94;87.76;102038.34;5091855;28;20208;-72
2022/07/19 02:37:38;;;;;;;10.73;7.17;;;;;;;14.86;88.44;102035.63;5091195;28;20200;-72
2022/07/19 02:40:04;;;;;;;8.60;6.93;;;;;;;14.86;87.45;102033.03;5091287;28;20203;-72
2022/07/19 02:42:30;;;;;;;9.13;7.70;;;;;;;14.87;87.09;102036.50;5073275;28;20257;-72
2022/07/19 02:44:55;;;;;;;8.50;7.20;;;;;;;14.86;86.84;102033.03;5091281;28;20181;-71
2022/07/19 02:47:21;;;;;;;8.37;6.73;;;;;;;14.82;86.93;102035.53;5091207;28;20196;-72
2022/07/19 02:49:46;;;;;;;9.97;7.27;;;;;;;14.79;86.44;102038.03;5091347;28;20212;-71
2022/07/19 02:52:12;;;;;;;8.87;7.10;;;;;;;14.77;86.00;102029.38;5072636;28;20276;-71
2022/07/19 02:54:38;;;;;;;10.10;7.13;;;;;;;14.70;87.90;102043.88;5106881;28;20184;-72
2022/07/19 02:57:04;;;;;;;8.57;6.90;;;;;;;14.73;87.17;102040.50;5090948;28;20192;-71
2022/07/19 02:59:30;;;;;;;9.53;6.63;;;;;;;14.67;87.06;102042.91;5091098;28;20223;-71
2022/07/19 03:01:56;;;;;;;9.30;7.53;;;;;;;14.61;87.07;102043.69;5091066;28;20188;-71
2022/07/19 03:04:21;;;;;;;9.17;7.90;;;;;;;14.61;87.40;102040.22;5090555;28;20271;-70
2022/07/19 03:06:47;;;;;;;8.57;6.90;;;;;;;14.57;87.71;102043.56;5090931;28;20173;-72
2022/07/19 03:09:12;;;;;;;9.83;7.37;;;;;;;14.45;88.54;102046.72;5072876;28;20238;-71
2022/07/19 03:11:38;;;;;;;9.07;7.23;;;;;;;14.48;87.81;102044.22;5091026;28;20177;-71
2022/07/19 03:14:03;;;;;;;9.07;7.17;;;;;;;14.50;87.21;102046.84;5090714;28;21061;-72
2022/07/19 03:16:29;;;;;;;11.50;8.00;;;;;;;14.36;87.29;102045.66;5090436;28;21031;-72
2022/07/19 03:18:54;;;;;;;10.27;7.63;;;;;;;14.39;87.33;102050.88;5090058;28;20763;-71
2022/07/19 03:21:20;;;;;;;10.20;8.43;;;;;;;14.42;87.38;102049.25;5072352;28;20196;-72
2022/07/19 03:23:45;;;;;;;9.00;7.77;;;;;;;14.38;87.23;102057.75;5090475;28;20188;-71
2022/07/19 03:26:11;;;;;;;10.20;7.23;;;;;;;14.27;87.66;102059.19;5072729;28;20223;-71
2022/07/19 03:28:37;;;;;;;9.17;7.27;;;;;;;14.29;87.44;102054.06;5078704;28;20212;-70
2022/07/19 03:31:02;;;;;;;10.30;8.83;;;;;;;14.33;87.45;102061.94;5072200;28;20196;-72
2022/07/19 03:33:28;;;;;;;11.67;8.80;;;;;;;14.28;88.73;102058.34;5090653;28;20677;-72
2022/07/19 03:35:54;;;;;;;12.57;8.83;;;;;;;14.27;89.15;102061.75;5090475;28;20208;-72
2022/07/19 03:38:19;;;;;;;11.20;8.47;;;;;;;14.26;88.74;102059.13;5089899;28;20188;-72
2022/07/19 03:40:47;;;;;;;9.47;8.37;;;;;;;14.34;88.03;102055.94;5090500;28;20263;-72
2022/07/19 03:43:14;;;;;;;9.80;8.30;;;;;;;14.35;87.87;102070.53;5090337;28;20192;-72
2022/07/19 03:45:39;;;;;;;10.80;8.77;;;;;;;14.38;88.12;102062.91;5089898;28;20173;-72
2022/07/19 03:48:05;;;;;;;11.57;8.80;;;;;;;14.32;89.04;102073.03;5084738;28;20185;-72
2022/07/19 03:50:30;;;;;;;14.90;8.97;;;;;;;14.32;89.11;102072.19;5071818;28;20199;-71
2022/07/19 03:52:56;;;;;;;12.20;9.93;;;;;;;14.37;89.64;102068.88;5071707;28;20192;-71
2022/07/19 03:55:21;;;;;;;12.03;9.13;;;;;;;14.41;88.54;102056.94;5071633;28;20596;-72
2022/07/19 03:57:47;;;;;;;10.13;9.03;;;;;;;14.44;88.79;102064.72;5070974;28;20188;-71
2022/07/19 04:00:12;;;;;;;11.97;9.20;;;;;;;14.41;89.31;102056.94;5089705;28;20274;-71
2022/07/19 04:02:38;;;;;;;11.20;8.90;;;;;;;14.46;88.80;102055.34;5090234;28;20198;-72
2022/07/19 04:05:04;;;;;;;13.23;9.13;;;;;;;14.50;88.66;102054.59;5071788;28;20190;-71
2022/07/19 04:07:29;;;;;;;11.83;9.03;;;;;;;14.52;88.28;102053.78;5089006;28;20184;-72
2022/07/19 04:09:55;;;;;;;11.23;9.63;;;;;;;14.63;89.03;102059.16;5089919;28;20700;-71
2022/07/19 04:12:20;;;;;;;11.93;8.60;;;;;;;14.66;88.67;102059.22;5089815;28;20188;-72
2022/07/19 04:14:46;;;;;;;11.37;9.70;;;;;;;14.68;88.51;102057.56;5089707;28;20189;-72
2022/07/19 04:17:11;;;;;;;11.83;9.60;;;;;;;14.73;88.06;102058.53;5089237;28;20197;-72
2022/07/19 04:19:37;;;;;;;11.57;8.43;;;;;;;14.77;88.18;102060.31;5089650;28;20291;-71
2022/07/19 04:22:02;;;;;;;12.57;9.87;;;;;;;14.86;88.49;102058.84;5071729;28;20271;-71
2022/07/19 04:24:28;;;;;;;13.73;9.77;;;;;;;14.91;89.26;102057.22;5089646;28;20722;-72
2022/07/19 04:26:54;;;;;;;13.13;9.80;;;;;;;14.97;90.09;102054.75;5089006;28;20574;-72
2022/07/19 04:29:19;;;;;;;11.50;8.57;;;;;;;14.99;90.32;102053.09;5089206;28;20225;-72
2022/07/19 04:31:45;;;;;;;11.27;8.70;;;;;;;15.05;90.52;102053.22;5089383;28;20552;-71
2022/07/19 04:34:10;;;;;;;11.43;8.97;;;;;;;15.11;90.01;102050.75;5085545;28;20197;-71
2022/07/19 04:36:35;;;;;;;11.10;9.40;;;;;;;15.22;89.27;102057.03;5070471;28;20204;-72
2022/07/19 04:39:01;;;;;;;11.43;8.77;;;;;;;15.31;89.64;102054.63;5071527;28;20291;-71
2022/07/19 04:41:27;;;;;;;11.47;8.33;;;;;;;15.41;88.96;102060.84;5090066;28;20176;-72
2022/07/19 04:43:53;;;;;;;13.70;9.37;;;;;;;15.54;89.53;102053.38;5071705;28;20578;-72
2022/07/19 04:46:19;;;;;;;10.80;9.17;;;;;;;15.66;89.93;102056.16;5089738;28;20189;-72
2022/07/19 04:48:44;;;;;;;11.43;9.20;;;;;;;15.76;89.91;102060.69;5089808;28;20200;-72
2022/07/19 04:51:10;;;;;;;14.23;9.70;;;;;;;15.90;90.42;102068.66;5089533;28;20234;-70
2022/07/19 04:53:35;;;;;;;13.70;9.37;;;;;;;15.97;89.86;102066.22;5089694;28;20600;-72
2022/07/19 04:56:01;;;;;;;11.90;9.47;;;;;;;16.06;88.76;102061.19;5089097;28;20299;-72
2022/07/19 04:58:27;;;;;;;10.80;8.97;;;;;;;16.13;89.09;102060.47;5089234;28;20290;-72
2022/07/19 05:00:52;;;;;;;14.37;9.33;;;;;;;16.25;88.56;102060.66;5089441;28;20280;-72
2022/07/19 05:03:17;;;;;;;12.00;8.90;;;;;;;16.38;87.69;102056.53;5089471;28;20249;-72
2022/07/19 05:05:43;;;;;;;13.37;9.23;;;;;;;16.50;87.79;102060.22;5089563;28;20176;-73
2022/07/19 05:08:09;;;;;;;12.83;9.60;;;;;;;16.67;87.84;102057.88;5070537;28;20693;-72
2022/07/19 05:10:35;;;;;;;12.90;9.00;;;;;;;16.78;88.04;102062.34;5089390;28;20206;-73
2022/07/19 05:13:00;;;;;;;12.87;9.23;;;;;;;16.93;87.83;102062.56;5089322;28;20793;-72
2022/07/19 05:15:26;;;;;;;14.33;9.77;;;;;;;17.06;87.92;102059.28;5089203;28;20315;-72
2022/07/19 05:17:51;;;;;;;11.40;8.87;;;;;;;17.24;87.17;102063.81;5088975;28;20214;-73
2022/07/19 05:20:17;;;;;;;10.80;8.33;;;;;;;17.39;86.31;102061.38;5089061;28;20207;-73
2022/07/19 05:22:43;;;;;;;14.43;9.60;;;;;;;17.58;85.54;102060.75;5089189;28;20180;-72
2022/07/19 05:25:09;;;;;;;13.33;9.23;;;;;;;17.71;85.06;102053.16;5089143;28;20172;-72
2022/07/19 05:27:35;;;;;;;11.93;8.93;;;;;;;17.88;84.44;102055.91;5088800;28;20180;-73
2022/07/19 05:30:01;;;;;;;14.90;9.17;;;;;;;17.99;84.03;102057.72;5088962;28;20227;-73
2022/07/19 05:32:27;;;;;;;13.17;9.27;;;;;;;18.13;83.85;102050.94;5088993;28;20237;-72
2022/07/19 05:34:52;;;;;;;12.63;9.67;;;;;;;18.30;83.40;102048.47;5089000;28;20193;-72
2022/07/19 05:37:18;;;;;;;13.90;8.53;;;;;;;18.46;82.51;102063.28;5089128;28;20188;-73
2022/07/19 05:39:43;;;;;;;15.77;7.80;;;;;;;18.61;81.85;102056.47;5089200;28;20203;-72
2022/07/19 05:42:09;;;;;;;14.10;8.10;;;;;;;18.77;81.12;102052.25;5089402;28;20180;-73
2022/07/19 05:44:34;;;;;;;13.70;8.43;;;;;;;18.89;80.90;102053.19;5092376;28;20180;-73
2022/07/19 05:47:00;;;;;;;12.17;7.77;;;;;;;18.98;80.42;102053.22;5092333;28;20467;-71
2022/07/19 05:49:25;;;;;;;9.27;7.53;;;;;;;19.15;79.67;102059.38;5083418;28;20236;-73
2022/07/19 05:51:51;;;;;;;15.13;7.73;;;;;;;19.23;79.26;102060.31;5094487;28;20204;-72
2022/07/19 05:54:17;;;;;;;12.97;8.53;;;;;;;19.36;78.93;102056.00;5082585;28;20184;-72
2022/07/19 05:56:43;;;;;;;12.93;8.23;;;;;;;19.40;79.03;102050.81;5091513;28;20854;-73
2022/07/19 05:59:08;;;;;;;11.17;8.37;;;;;;;19.45;78.32;102045.66;5089646;28;20214;-72
2022/07/19 06:01:34;;;;;;;10.07;8.43;;;;;;;19.65;77.93;102044.81;5091321;28;20200;-73
2022/07/19 06:04:00;;;;;;;11.87;10.10;;;;;;;19.72;77.64;102049.16;5091557;28;20666;-73
2022/07/19 06:06:28;;;;;;;13.13;9.30;;;;;;;19.85;77.70;102048.31;5090885;28;20173;-72
2022/07/19 06:08:54;;;;;;;11.20;9.97;;;;;;;19.92;77.23;102054.38;5107739;28;20212;-72
2022/07/19 06:11:19;;;;;;;15.30;9.87;;;;;;;19.95;76.54;102051.78;5107863;28;20223;-73
2022/07/19 06:13:46;;;;;;;12.47;10.17;;;;;;;20.12;75.60;102044.88;5107835;28;20212;-72
2022/07/19 06:16:13;;;;;;;10.80;8.93;;;;;;;20.31;74.98;102038.81;5073972;28;20222;-73
2022/07/19 06:18:39;;;;;;;10.40;8.63;;;;;;;20.27;74.42;102037.09;5092235;28;20207;-73
2022/07/19 06:21:08;;;;;;;9.93;8.00;;;;;;;20.47;73.11;102040.50;5073765;28;20677;-73
2022/07/19 06:23:33;;;;;;;11.53;8.73;;;;;;;20.62;71.28;102040.47;5092511;28;20211;-73
2022/07/19 06:25:59;;;;;;;9.57;7.87;;;;;;;20.91;70.54;102038.72;5073951;28;20642;-73
2022/07/19 06:28:25;;;;;;;11.13;9.00;;;;;;;21.12;70.19;102038.59;5091961;28;20246;-73
2022/07/19 06:30:52;;;;;;;13.70;9.83;;;;;;;21.23;70.68;102044.66;5092134;28;20184;-73
2022/07/19 06:33:17;;;;;;;15.87;9.33;;;;;;;21.36;70.12;102047.16;5091430;28;20242;-73
2022/07/19 06:35:43;;;;;;;10.80;8.80;;;;;;;21.61;69.48;102046.13;5092122;28;20209;-73
2022/07/19 06:38:08;;;;;;;10.63;9.27;;;;;;;21.72;68.42;102054.81;5084679;28;20192;-72
2022/07/19 06:40:34;;;;;;;10.93;8.27;;;;;;;21.74;67.65;102060.88;5091327;28;20185;-71
2022/07/19 06:42:59;;;;;;;11.30;8.43;;;;;;;21.98;66.94;102049.41;5090196;28;20173;-72
2022/07/19 06:45:25;;;;;;;11.73;8.47;;;;;;;21.93;66.23;102059.00;5091334;28;20204;-72
2022/07/19 06:47:51;;;;;;;11.27;8.00;;;;;;;22.12;65.57;102061.44;5072584;28;20188;-73
2022/07/19 06:50:17;;;;;;;10.13;7.97;;;;;;;22.37;63.99;102071.69;5074546;28;20212;-72
2022/07/19 06:52:43;;;;;;;8.83;7.80;;;;;;;22.60;62.44;102070.59;5091433;28;20275;-71
2022/07/19 06:55:08;;;;;;;10.57;8.53;;;;;;;22.70;61.35;102060.94;5077050;28;20208;-72
2022/07/19 06:57:34;;;;;;;8.87;7.43;;;;;;;22.89;61.04;102059.84;5089221;28;20643;-72
2022/07/19 06:59:59;;;;;;;10.47;7.40;;;;;;;23.17;60.68;102064.75;5071793;28;20242;-72
2022/07/19 07:02:25;;;;;;;9.47;7.20;;;;;;;23.20;60.07;102059.47;5071760;28;20199;-72
2022/07/19 07:04:50;;;;;;;9.13;7.30;;;;;;;23.46;59.16;102048.66;5091200;28;20191;-72
2022/07/19 07:07:16;;;;;;;8.03;6.90;;;;;;;23.70;59.00;102057.03;5090710;28;20180;-73
2022/07/19 07:09:42;;;;;;;8.33;6.63;;;;;;;23.95;58.54;102061.06;5072015;28;20271;-72
2022/07/19 07:12:08;;;;;;;8.80;6.17;;;;;;;24.12;58.11;102052.94;5090907;28;20188;-72
2022/07/19 07:14:34;;;;;;;9.60;6.05;;;;;;;24.44;56.79;102048.00;5072662;28;20188;-72
2022/07/19 07:17:00;;;;;;;6.60;5.90;;;;;;;24.51;55.32;102042.63;5090315;28;20273;-72
2022/07/19 07:19:25;;;;;;;8.07;6.05;;;;;;;24.54;55.15;102045.16;5090809;28;20212;-70
2022/07/19 07:21:51;;;;;;;7.25;5.30;;;;;;;24.69;54.60;102041.44;5089889;28;20185;-72
2022/07/19 07:24:16;;;;;;;8.77;6.53;;;;;;;25.02;53.54;102040.75;5091010;28;20188;-72
2022/07/19 07:26:42;;;;;;;9.45;6.05;;;;;;;25.06;53.94;102038.03;5090330;28;20184;-72
2022/07/19 07:29:08;;;;;;;7.07;6.07;;;;;;;25.30;54.00;102036.66;5072616;28;20307;-72
2022/07/19 07:31:34;;;;;;;9.55;5.72;;;;;;;25.59;53.24;102036.88;5090574;28;20617;-72
2022/07/19 07:33:59;;;;;;;7.30;5.28;;;;;;;25.63;51.11;102038.53;5090269;28;20279;-72
2022/07/19 07:36:25;;;;;;;6.25;5.47;;;;;;;25.88;51.17;102034.44;5105659;28;20205;-73
2022/07/19 07:38:51;;;;;;;7.72;5.65;;;;;;;26.16;50.07;102038.13;5090329;28;20228;-72
2022/07/19 07:41:16;;;;;;;7.53;5.70;;;;;;;26.33;49.59;102042.03;5090177;28;20242;-72
2022/07/19 07:43:42;;;;;;;8.45;6.35;;;;;;;26.30;50.13;102050.00;5090238;28;20249;-73
2022/07/19 07:46:07;;;;;;;5.90;4.97;;;;;;;26.70;50.00;102042.81;5090161;28;20192;-72
2022/07/19 07:48:32;;;;;;;6.50;4.75;;;;;;;27.05;49.73;102037.41;5089783;28;20212;-72
2022/07/19 07:50:58;;;;;;;9.82;5.88;;;;;;;27.11;46.77;102041.63;5090387;28;20195;-72
2022/07/19 07:53:23;;;;;;;7.88;5.28;;;;;;;27.21;48.03;102035.22;5090236;28;20188;-72
2022/07/19 07:55:49;;;;;;;5.68;5.00;;;;;;;27.47;46.37;102038.78;5089486;28;20204;-72
2022/07/19 07:58:14;;;;;;;5.63;5.03;;;;;;;27.75;47.76;102034.38;5071373;28;20280;-72
2022/07/19 08:00:40;;;;;;;6.55;4.82;;;;;;;27.77;45.30;102037.81;5090195;28;20184;-72
2022/07/19 08:03:06;;;;;;;6.65;5.03;;;;;;;27.85;45.47;102034.94;5071849;28;20241;-73
2022/07/19 08:05:32;;;;;;;6.80;5.10;;;;;;;27.89;43.57;102037.44;5089518;28;20184;-72
2022/07/19 08:07:59;;;;;;;6.88;5.10;;;;;;;28.10;42.79;102025.34;5089215;28;20188;-72
2022/07/19 08:10:28;;;;;;;9.55;5.63;;;;;;;28.13;43.71;102028.72;5090089;28;20196;-73
2022/07/19 08:12:54;;;;;;;7.72;5.30;;;;;;;28.38;43.18;102018.19;5089883;28;20190;-73
2022/07/19 08:15:20;;;;;;;8.23;4.72;;;;;;;28.56;42.23;102018.41;5089898;28;20204;-72
2022/07/19 08:17:46;;;;;;;7.78;5.03;;;;;;;28.81;41.07;102016.63;5054095;28;20200;-73
2022/07/19 08:20:12;;;;;;;8.88;5.20;;;;;;;28.58;41.44;102013.09;5089597;28;20204;-73
2022/07/19 08:22:37;;;;;;;5.85;4.25;;;;;;;28.94;41.24;102012.63;5071449;28;20248;-73
2022/07/19 08:25:03;;;;;;;7.65;4.68;;;;;;;29.19;39.91;102007.31;5089935;28;20187;-73
2022/07/19 08:27:29;;;;;;;6.28;4.70;;;;;;;29.43;39.80;102006.34;5089424;28;20188;-73
2022/07/19 08:29:55;;;;;;;4.90;4.40;;;;;;;29.65;40.04;102007.19;5089132;28;20215;-73
2022/07/19 08:32:20;;;;;;;5.38;4.72;;;;;;;29.52;38.21;102003.31;5089484;28;20188;-73
2022/07/19 08:34:46;;;;;;;10.40;5.60;;;;;;;29.64;36.55;102005.50;5071590;28;20246;-70
2022/07/19 08:37:11;;;;;;;9.95;4.85;;;;;;;29.91;37.41;101997.28;5089317;28;20228;-73
2022/07/19 08:39:37;;;;;;;5.65;4.60;;;;;;;29.87;36.24;101997.47;5088678;28;20239;-72
2022/07/19 08:42:03;;;;;;;8.48;4.97;;;;;;;30.13;36.64;101985.81;5089458;28;20275;-73
2022/07/19 08:44:29;;;;;;;6.10;4.85;;;;;;;30.14;34.64;101991.06;5089298;28;20192;-71
2022/07/19 08:46:55;;;;;;;5.57;4.97;;;;;;;29.95;34.15;101987.44;5088940;28;20191;-73
2022/07/19 08:49:21;;;;;;;6.68;4.80;;;;;;;30.24;34.95;101981.78;5088966;28;20204;-72
2022/07/19 08:51:48;;;;;;;6.40;4.78;;;;;;;30.10;34.37;101977.09;5070713;28;20296;-73
2022/07/19 08:54:14;;;;;;;5.18;4.57;;;;;;;30.33;33.31;101980.56;5074879;28;20180;-73
2022/07/19 08:59:24;;;;;;;8.45;4.80;;;;;;;30.80;34.97;101968.72;5088956;28;20243;-73
2022/07/19 09:01:50;;;;;;;6.47;4.85;;;;;;;30.94;34.19;101969.75;5089510;28;20222;-72
2022/07/19 09:04:24;;;;;;;5.70;4.38;;;;;;;31.31;34.74;101979.53;5088652;28;20291;-72
2022/07/19 09:06:56;;;;;;;6.25;4.80;;;;;;;31.35;32.57;101968.69;5088738;28;20827;-73
2022/07/19 09:09:27;;;;;;;5.80;4.57;;;;;;;31.54;32.44;101976.59;5088816;28;20216;-72
2022/07/19 09:11:54;;;;;;;6.63;4.72;;;;;;;31.95;33.42;101970.13;5088086;28;20669;-73
2022/07/19 09:14:25;;;;;;;6.03;4.20;;;;;;;32.01;32.31;101973.31;5104417;28;20631;-73
2022/07/19 09:16:52;;;;;;;5.22;4.30;;;;;;;31.91;31.57;101981.81;5104171;28;20476;-73
2022/07/19 09:19:19;;;;;;;7.40;4.40;;;;;;;31.43;32.59;101973.59;5092679;28;20610;-73
2022/07/19 09:22:01;;;;;;;5.47;4.30;;;;;;;31.03;32.65;101979.94;5092943;28;20196;-73
2022/07/19 09:24:28;;;;;;;4.40;4.00;;;;;;;31.15;32.79;101978.50;5092848;28;20188;-73
2022/07/19 09:26:58;;;;;;;7.80;4.45;;;;;;;31.97;33.72;101970.91;5092989;28;20248;-73
2022/07/19 09:29:24;;;;;;;7.70;4.57;;;;;;;31.96;31.97;101966.53;5091589;28;20646;-71
2022/07/19 09:32:12;;;;;;;4.90;4.40;;;;;;;31.80;31.64;101973.53;5091404;28;20196;-71
2022/07/19 09:34:48;;;;;;;4.80;4.30;;;;;;;31.86;31.52;101968.78;5072984;28;20204;-73
2022/07/19 09:37:15;;;;;;;5.10;4.28;;;;;;;32.01;31.62;101970.69;5081041;28;20214;-72
2022/07/19 09:39:45;;;;;;;7.45;4.47;;;;;;;31.92;31.91;101970.28;5074598;28;20335;-72
2022/07/19 09:42:15;;;;;;;4.20;3.80;;;;;;;32.15;31.86;101967.28;5093012;28;20673;-72
2022/07/19 09:44:42;;;;;;;3.92;3.47;;;;;;;32.40;31.14;101965.09;5092187;28;20550;-72
2022/07/19 09:47:07;;;;;;;6.55;4.50;;;;;;;32.25;30.53;101957.91;5092870;28;20185;-73
2022/07/19 09:49:33;;;;;;;6.03;4.55;;;;;;;32.25;30.78;101964.09;5093058;28;20288;-72
2022/07/19 09:51:58;;;;;;;4.57;4.07;;;;;;;32.41;30.58;101956.22;5092574;28;20271;-73
2022/07/19 09:54:26;;;;;;;5.28;4.20;;;;;;;32.46;30.45;101962.97;5092389;28;20198;-73
2022/07/19 09:56:53;;;;;;;4.70;4.18;;;;;;;32.08;30.73;101963.25;5091862;28;20205;-72
2022/07/19 09:59:20;;;;;;;5.20;3.80;;;;;;;32.06;31.09;101960.69;5082638;28;20205;-72
2022/07/19 10:01:51;;;;;;;6.28;4.28;;;;;;;32.88;31.80;101958.03;5092324;28;20597;-72
2022/07/19 10:04:20;;;;;;;5.93;3.80;;;;;;;32.84;29.73;101959.16;5092614;28;20646;-73
2022/07/19 10:06:47;;;;;;;6.28;4.63;;;;;;;33.02;30.14;101946.66;5092148;28;20205;-72
2022/07/19 10:09:15;;;;;;;8.30;4.05;;;;;;;32.77;31.07;101948.94;5108268;28;20618;-73
2022/07/19 10:11:41;;;;;;;5.20;4.07;;;;;;;33.44;31.94;101942.44;5092656;28;20655;-73
2022/07/19 10:14:07;;;;;;;5.15;3.78;;;;;;;34.08;29.74;101937.72;5092364;28;20203;-73
2022/07/19 10:16:42;;;;;;;6.18;4.25;;;;;;;33.81;28.25;101943.81;5106182;28;20211;-73
2022/07/19 10:19:44;;;;;;;4.00;3.70;;;;;;;34.12;28.96;101936.53;5091729;28;20200;-72
2022/07/19 10:22:12;;;;;;;4.22;3.65;;;;;;;33.63;27.52;101939.53;5069644;28;20201;-73
2022/07/19 10:24:48;;;;;;;6.68;4.13;;;;;;;33.90;28.52;101941.47;5090816;28;20317;-73
2022/07/19 10:27:17;;;;;;;6.03;4.07;;;;;;;33.87;28.91;101939.00;5084490;28;20184;-72
2022/07/19 10:29:43;;;;;;;6.13;3.80;;;;;;;33.58;27.32;101941.63;5091490;28;20215;-73
2022/07/19 10:32:12;;;;;;;4.55;3.20;;;;;;;33.97;28.00;101933.97;5074174;28;20184;-73
2022/07/19 10:34:38;;;;;;;7.38;4.32;;;;;;;34.31;28.29;101931.00;5091889;28;20665;-73
2022/07/19 10:37:04;;;;;;;4.82;3.90;;;;;;;34.23;28.66;101931.44;5091294;28;20254;-73
2022/07/19 10:39:33;;;;;;;4.10;3.75;;;;;;;34.32;27.42;101914.06;5091764;28;20200;-73
2022/07/19 10:42:14;;;;;;;6.93;4.00;;;;;;;34.34;29.47;101921.00;5091826;28;20554;-72
2022/07/19 10:44:54;;;;;;;4.45;3.30;;;;;;;34.04;27.42;101917.56;5091932;28;20188;-74
2022/07/19 10:47:40;;;;;;;5.88;4.03;;;;;;;33.71;28.51;101916.88;5073715;28;20214;-72
2022/07/19 10:50:11;;;;;;;9.05;4.07;;;;;;;33.71;28.64;101916.03;5042008;28;20256;-73
2022/07/19 10:52:38;;;;;;;4.40;3.90;;;;;;;33.54;28.52;101910.84;5108108;28;20271;-72
2022/07/19 10:55:27;;;;;;;7.72;4.35;;;;;;;33.29;29.97;101913.19;5072613;28;20183;-72
2022/07/19 10:57:58;;;;;;;4.80;3.95;;;;;;;33.77;30.22;101911.19;5051002;28;20188;-72
2022/07/19 11:00:27;;;;;;;4.70;3.75;;;;;;;34.37;30.24;101904.88;5091772;28;20212;-73
2022/07/19 11:03:22;;;;;;;3.70;3.40;;;;;;;34.48;29.36;101904.19;5091774;28;20249;-72
2022/07/19 11:05:50;;;;;;;5.65;3.70;;;;;;;34.63;28.43;101903.22;5091417;28;20184;-74
2022/07/19 11:08:17;;;;;;;4.60;3.78;;;;;;;34.91;28.35;101892.53;5073349;28;20220;-73
2022/07/19 11:10:42;;;;;;;4.72;3.72;;;;;;;35.03;29.65;101897.91;5090685;28;20651;-73
2022/07/19 11:13:08;;;;;;;4.53;3.90;;;;;;;35.17;28.88;101905.00;5072852;28;20189;-74
2022/07/19 11:15:34;;;;;;;5.38;4.18;;;;;;;35.18;28.68;101904.03;5091411;28;20216;-74
2022/07/19 11:18:04;;;;;;;4.15;3.60;;;;;;;35.27;27.95;101904.31;5091440;28;20290;-72
2022/07/19 11:20:35;;;;;;;5.82;4.03;;;;;;;34.42;27.50;101901.91;5091345;28;20212;-73
2022/07/19 11:23:06;;;;;;;5.80;4.40;;;;;;;34.33;27.87;101899.81;5106351;28;20181;-73